createdAt,value
2023-04-21T00:04:57.975Z,27.20
2023-04-21T00:10:03.617Z,27.10
2023-04-21T00:15:12.834Z,27.10
2023-04-21T00:20:18.182Z,27.20
2023-04-21T00:25:24.801Z,27.20
2023-04-21T00:30:30.609Z,27.20
2023-04-21T00:35:37.093Z,27.30
2023-04-21T00:40:42.537Z,27.40
2023-04-21T00:45:49.949Z,27.60
2023-04-21T00:50:56.619Z,28.00
2023-04-21T00:56:02.231Z,28.40
2023-04-21T01:01:08.348Z,28.40
2023-04-21T01:06:14.194Z,28.20
2023-04-21T01:11:19.801Z,28.00
2023-04-21T01:16:26.389Z,27.90
2023-04-21T01:21:41.967Z,27.90
2023-04-21T01:26:50.916Z,27.90
2023-04-21T01:31:56.633Z,28.00
2023-04-21T01:37:03.383Z,28.20
2023-04-21T01:42:09.310Z,28.20
2023-04-21T01:47:15.805Z,28.30
2023-04-21T01:52:22.048Z,28.50
2023-04-21T01:57:27.604Z,28.60
2023-04-21T02:02:33.567Z,28.90
2023-04-21T02:07:39.709Z,29.10
2023-04-21T02:12:45.412Z,29.20
2023-04-21T02:17:51.114Z,29.40
2023-04-21T02:22:57.009Z,29.20
2023-04-21T02:28:02.686Z,28.60
2023-04-21T02:33:11.798Z,28.40
2023-04-21T02:38:17.946Z,28.50
2023-04-21T02:43:23.738Z,28.60
2023-04-21T02:48:29.881Z,28.80
2023-04-21T02:53:36.104Z,28.90
2023-04-21T02:58:42.167Z,29.10
2023-04-21T03:03:48.347Z,29.20
2023-04-21T03:08:54.132Z,29.40
2023-04-21T03:13:58.916Z,29.90
2023-04-21T03:19:04.658Z,30.50
2023-04-21T03:24:10.823Z,30.60
2023-04-21T03:29:17.362Z,31.20
2023-04-21T03:34:24.263Z,31.20
2023-04-21T03:39:36.318Z,31.60
2023-04-21T03:44:44.545Z,31.90
2023-04-21T03:49:50.287Z,31.80
2023-04-21T03:54:55.925Z,32.00
2023-04-21T04:00:01.337Z,32.20
2023-04-21T04:05:17.417Z,32.90
2023-04-21T04:10:23.197Z,33.20
2023-04-21T04:15:28.656Z,33.20
2023-04-21T04:20:34.595Z,33.10
2023-04-21T04:25:41.084Z,33.10
2023-04-21T04:30:46.934Z,32.90
2023-04-21T04:35:52.777Z,33.20
2023-04-21T04:41:00.477Z,33.50
2023-04-21T04:46:07.062Z,33.50
2023-04-21T04:51:14.597Z,33.00
2023-04-21T04:56:20.344Z,32.90
2023-04-21T05:01:34.327Z,32.90
2023-04-21T05:06:40.052Z,32.50
2023-04-21T05:11:46.233Z,32.70
2023-04-21T05:16:51.916Z,32.90
2023-04-21T05:22:02.496Z,32.70
2023-04-21T05:27:11.153Z,32.20
2023-04-21T05:32:16.953Z,32.30
2023-04-21T05:37:22.581Z,32.80
2023-04-21T05:42:28.064Z,33.10
2023-04-21T05:47:33.782Z,33.50
2023-04-21T05:52:38.982Z,33.50
2023-04-21T05:57:45.726Z,34.80
2023-04-21T06:02:54.288Z,34.50
2023-04-21T06:07:59.811Z,34.30
2023-04-21T06:13:05.284Z,34.30
2023-04-21T06:18:11.322Z,34.00
2023-04-21T06:23:17.595Z,34.40
2023-04-21T06:28:23.526Z,35.70
2023-04-21T06:33:29.833Z,37.70
2023-04-21T06:38:35.655Z,36.80
2023-04-21T06:43:41.287Z,36.90
2023-04-21T06:48:49.678Z,36.20
2023-04-21T06:53:55.063Z,35.90
2023-04-21T06:59:00.472Z,35.30
2023-04-21T07:04:12.587Z,35.50
2023-04-21T07:09:18.862Z,35.90
2023-04-21T07:14:24.857Z,37.20
2023-04-21T07:19:31.747Z,37.40
2023-04-21T07:25:53.626Z,38.40
2023-04-21T07:31:00.953Z,38.60
2023-04-21T07:36:08.330Z,37.30
2023-04-21T07:41:15.047Z,37.60
2023-04-21T07:46:20.600Z,37.70
2023-04-21T07:51:30.814Z,38.30
2023-04-21T08:03:07.017Z,38.40
2023-04-21T08:13:47.212Z,38.10
2023-04-21T08:18:53.057Z,37.00
2023-04-21T08:24:02.549Z,36.40
2023-04-21T08:29:11.775Z,35.80
2023-04-21T08:34:18.150Z,35.40
2023-04-21T08:39:29.590Z,35.00
2023-04-21T08:56:23.613Z,33.90
2023-04-21T09:01:54.649Z,33.60
2023-04-21T09:07:35.073Z,33.40
2023-04-21T09:12:44.118Z,33.40
2023-04-21T09:17:53.183Z,33.00
2023-04-21T09:23:26.659Z,32.70
2023-04-21T09:29:11.724Z,32.60
2023-04-21T09:34:31.763Z,32.50
2023-04-21T09:39:52.732Z,32.40
2023-04-21T09:46:57.942Z,32.20
2023-04-21T09:51:49.068Z,32.00
2023-04-21T09:57:00.719Z,31.80
2023-04-21T10:02:09.016Z,31.60
2023-04-21T10:07:18.244Z,31.40
2023-04-21T10:12:25.452Z,31.20
2023-04-21T10:17:31.053Z,31.00
2023-04-21T10:22:50.894Z,30.90
2023-04-21T10:27:57.089Z,30.80
2023-04-21T10:33:34.498Z,30.70
2023-04-21T10:38:48.372Z,30.50
2023-04-21T10:43:55.877Z,30.40
2023-04-21T10:49:29.313Z,30.30
2023-04-21T11:01:06.614Z,29.90
2023-04-21T11:21:13.410Z,29.70
2023-04-21T11:26:19.720Z,29.40
2023-04-21T11:31:35.347Z,29.40
2023-04-21T11:37:23.374Z,29.30
2023-04-21T11:42:55.229Z,29.30
2023-04-21T11:48:22.779Z,29.20
2023-04-21T11:53:28.621Z,29.30
2023-04-21T11:58:35.444Z,29.30
2023-04-21T12:03:41.734Z,29.30
2023-04-21T12:08:47.638Z,29.20
2023-04-21T12:13:54.155Z,29.10
2023-04-21T12:31:25.914Z,28.70
2023-04-21T12:36:33.908Z,28.70
2023-04-21T12:41:46.480Z,28.70
2023-04-21T12:46:54.034Z,28.50
2023-04-21T12:52:02.637Z,28.50
2023-04-21T12:57:26.144Z,28.50
2023-04-21T13:02:32.876Z,28.50
2023-04-21T13:07:43.306Z,28.50
2023-04-21T13:12:49.074Z,28.40
2023-04-21T13:17:54.787Z,28.30
2023-04-21T13:23:14.598Z,28.30
2023-04-21T13:28:23.832Z,28.30
2023-04-21T13:33:29.571Z,28.20
2023-04-21T13:38:35.973Z,28.20
2023-04-21T13:43:47.266Z,28.10
2023-04-21T13:50:23.624Z,28.10
2023-04-21T13:55:32.366Z,28.10
2023-04-21T14:00:41.012Z,28.00
2023-04-21T14:05:47.356Z,28.00
2023-04-21T14:11:19.803Z,27.90
2023-04-21T14:16:26.296Z,27.90
2023-04-21T14:21:39.262Z,27.90
2023-04-21T14:26:47.011Z,27.80
2023-04-21T14:31:56.056Z,27.70
2023-04-21T14:37:02.029Z,27.40
2023-04-21T14:42:07.672Z,27.30
2023-04-21T14:47:12.958Z,27.20
2023-04-21T14:52:20.482Z,27.10
2023-04-21T14:57:26.343Z,27.00
2023-04-21T15:02:32.460Z,27.00
2023-04-21T15:07:38.117Z,27.00
2023-04-21T15:12:45.612Z,27.00
2023-04-21T15:17:51.268Z,27.00
2023-04-21T15:22:57.037Z,26.90
2023-04-21T15:28:07.299Z,26.80
2023-04-21T15:33:13.008Z,26.80
2023-04-21T15:38:18.580Z,26.80
2023-04-21T15:43:25.841Z,26.80
2023-04-21T15:48:33.167Z,26.80
2023-04-21T15:53:44.283Z,26.80
2023-04-21T15:58:52.895Z,26.80
2023-04-21T16:03:59.640Z,26.70
2023-04-21T16:09:25.274Z,26.80
2023-04-21T16:14:42.768Z,26.80
2023-04-21T16:19:57.042Z,26.80
2023-04-21T16:25:03.076Z,26.80
2023-04-21T16:30:09.397Z,26.80
2023-04-21T16:35:15.398Z,26.80
2023-04-21T16:40:21.299Z,26.70
2023-04-21T16:45:27.077Z,26.80
2023-04-21T16:50:32.635Z,26.80
2023-04-21T16:55:38.452Z,26.90
2023-04-21T17:00:43.967Z,26.80
2023-04-21T17:05:53.221Z,26.80
2023-04-21T17:11:00.426Z,26.80
2023-04-21T17:16:06.289Z,26.80
2023-04-21T17:21:11.147Z,26.70
2023-04-21T17:26:17.153Z,26.70
2023-04-21T17:37:18.541Z,26.70
2023-04-21T17:42:24.185Z,26.70
2023-04-21T17:47:29.756Z,26.60
2023-04-21T17:52:35.039Z,26.60
2023-04-21T17:57:40.646Z,26.60
2023-04-21T18:02:46.404Z,26.60
2023-04-21T18:07:52.565Z,26.50
2023-04-21T18:12:58.114Z,26.50
2023-04-21T18:18:03.866Z,26.50
2023-04-21T18:23:09.724Z,26.40
2023-04-21T18:28:15.835Z,26.50
2023-04-21T18:33:21.122Z,26.50
2023-04-21T18:38:26.698Z,26.50
2023-04-21T18:43:32.853Z,26.50
2023-04-21T18:48:38.442Z,26.50
2023-04-21T18:53:45.010Z,26.50
2023-04-21T18:58:50.556Z,26.40
2023-04-21T19:03:56.889Z,26.40
2023-04-21T19:09:02.433Z,26.40
2023-04-21T19:14:07.893Z,26.40
2023-04-21T19:19:13.834Z,26.40
2023-04-21T19:24:18.864Z,26.40
2023-04-21T19:29:24.529Z,26.30
2023-04-21T19:34:29.882Z,26.40
2023-04-21T19:39:35.517Z,26.50
2023-04-21T19:44:41.203Z,26.50
2023-04-21T19:49:47.027Z,26.50
2023-04-21T19:54:52.502Z,26.50
2023-04-21T19:59:58.093Z,26.50
2023-04-21T20:05:03.705Z,26.50
2023-04-21T20:10:09.615Z,26.50
2023-04-21T20:15:15.306Z,26.50
2023-04-21T20:20:20.872Z,26.50
2023-04-21T20:25:26.202Z,26.50
2023-04-21T20:30:31.810Z,26.50
2023-04-21T20:35:40.899Z,26.50
2023-04-21T20:40:46.487Z,26.50
2023-04-21T20:45:52.197Z,26.50
2023-04-21T20:50:57.951Z,26.50
2023-04-21T20:56:03.128Z,26.50
2023-04-21T21:01:08.893Z,26.50
2023-04-21T21:06:16.000Z,26.60
2023-04-21T21:11:23.186Z,26.60
2023-04-21T21:16:28.619Z,26.50
2023-04-21T21:21:33.932Z,26.50
2023-04-21T21:26:42.573Z,26.60
2023-04-21T21:31:48.536Z,26.60
2023-04-21T21:36:53.850Z,26.50
2023-04-21T21:41:59.893Z,26.60
2023-04-21T21:47:05.264Z,26.50
2023-04-21T21:52:10.603Z,26.50
2023-04-21T21:57:16.011Z,26.50
2023-04-21T22:02:21.879Z,26.50
2023-04-21T22:07:27.751Z,26.60
2023-04-21T22:12:35.905Z,26.60
2023-04-21T22:17:41.629Z,26.60
2023-04-21T22:22:46.502Z,26.60
2023-04-21T22:27:51.797Z,26.70
2023-04-21T22:32:57.976Z,26.70
2023-04-21T22:38:03.409Z,26.70
2023-04-21T22:43:09.084Z,26.70
2023-04-21T22:48:15.791Z,26.70
2023-04-21T22:53:21.413Z,26.70
2023-04-21T22:58:27.712Z,26.70
2023-04-21T23:03:33.435Z,26.80
2023-04-21T23:08:38.991Z,26.80
2023-04-21T23:13:44.594Z,26.90
2023-04-21T23:18:50.859Z,26.90
2023-04-21T23:23:56.155Z,26.90
2023-04-21T23:29:01.752Z,27.00
2023-04-21T23:34:07.832Z,26.90
2023-04-21T23:39:13.461Z,26.90
2023-04-21T23:44:19.090Z,26.90
2023-04-21T23:49:24.727Z,26.90
2023-04-21T23:54:30.043Z,27.00
2023-04-21T23:59:36.019Z,27.00
